sensor_id;sensor_type;location;lat;lon;timestamp;pressure;altitude;pressure_sealevel;temperature;humidity
35758;BME280;21879;50.110;18.900;2023-01-16T00:04:35;97759.02;;;6.06;71.39
35758;BME280;21879;50.110;18.900;2023-01-16T00:15:03;97756.15;;;6.22;70.54
35758;BME280;21879;50.110;18.900;2023-01-16T00:25:31;97753.36;;;6.00;69.87
35758;BME280;21879;50.110;18.900;2023-01-16T00:35:59;97742.80;;;6.06;69.61
35758;BME280;21879;50.110;18.900;2023-01-16T00:46:26;97738.39;;;5.94;68.89
35758;BME280;21879;50.110;18.900;2023-01-16T00:56:56;97732.03;;;5.84;68.68
35758;BME280;21879;50.110;18.900;2023-01-16T01:07:23;97732.48;;;5.68;68.14
35758;BME280;21879;50.110;18.900;2023-01-16T01:17:51;97721.95;;;5.36;67.63
35758;BME280;21879;50.110;18.900;2023-01-16T01:28:19;97724.39;;;5.31;67.88
35758;BME280;21879;50.110;18.900;2023-01-16T01:38:46;97725.10;;;5.26;67.41
35758;BME280;21879;50.110;18.900;2023-01-16T01:49:24;97727.60;;;5.45;67.42
35758;BME280;21879;50.110;18.900;2023-01-16T01:59:57;97710.90;;;5.40;67.03
35758;BME280;21879;50.110;18.900;2023-01-16T02:10:33;97696.54;;;5.11;66.39
35758;BME280;21879;50.110;18.900;2023-01-16T02:21:16;97695.14;;;4.62;66.85
35758;BME280;21879;50.110;18.900;2023-01-16T02:31:50;97696.00;;;4.60;66.88
35758;BME280;21879;50.110;18.900;2023-01-16T02:42:26;97679.84;;;4.56;66.82
35758;BME280;21879;50.110;18.900;2023-01-16T02:53:01;97680.74;;;4.11;67.04
35758;BME280;21879;50.110;18.900;2023-01-16T03:03:42;97671.28;;;4.19;67.84
35758;BME280;21879;50.110;18.900;2023-01-16T03:14:27;97665.41;;;4.27;67.53
35758;BME280;21879;50.110;18.900;2023-01-16T03:25:05;97664.05;;;4.15;68.12
35758;BME280;21879;50.110;18.900;2023-01-16T03:35:41;97664.55;;;4.40;68.04
35758;BME280;21879;50.110;18.900;2023-01-16T03:46:15;97660.22;;;4.51;67.93
35758;BME280;21879;50.110;18.900;2023-01-16T03:56:48;97647.13;;;4.53;67.86
35758;BME280;21879;50.110;18.900;2023-01-16T04:07:22;97636.60;;;4.65;67.60
35758;BME280;21879;50.110;18.900;2023-01-16T04:17:54;97621.42;;;4.70;67.49
35758;BME280;21879;50.110;18.900;2023-01-16T04:28:22;97596.77;;;4.80;67.06
35758;BME280;21879;50.110;18.900;2023-01-16T04:38:50;97575.60;;;4.76;66.92
35758;BME280;21879;50.110;18.900;2023-01-16T04:49:17;97567.67;;;4.76;66.73
35758;BME280;21879;50.110;18.900;2023-01-16T04:59:46;97550.27;;;4.80;66.83
35758;BME280;21879;50.110;18.900;2023-01-16T05:10:13;97548.43;;;4.69;66.67
35758;BME280;21879;50.110;18.900;2023-01-16T05:20:41;97534.81;;;4.72;66.71
35758;BME280;21879;50.110;18.900;2023-01-16T05:31:08;97535.27;;;4.46;66.22
35758;BME280;21879;50.110;18.900;2023-01-16T05:41:36;97529.90;;;4.03;66.58
35758;BME280;21879;50.110;18.900;2023-01-16T05:52:04;97521.52;;;3.81;66.92
35758;BME280;21879;50.110;18.900;2023-01-16T06:02:32;97506.48;;;4.09;67.80
35758;BME280;21879;50.110;18.900;2023-01-16T06:13:01;97494.15;;;4.40;67.73
35758;BME280;21879;50.110;18.900;2023-01-16T06:23:28;97474.86;;;4.47;67.32
35758;BME280;21879;50.110;18.900;2023-01-16T06:33:57;97475.52;;;4.52;67.47
35758;BME280;21879;50.110;18.900;2023-01-16T06:44:25;97462.09;;;4.52;67.28
35758;BME280;21879;50.110;18.900;2023-01-16T06:54:52;97460.85;;;4.58;67.34
35758;BME280;21879;50.110;18.900;2023-01-16T07:05:21;97455.46;;;4.67;67.03
35758;BME280;21879;50.110;18.900;2023-01-16T07:15:49;97454.88;;;4.78;67.05
35758;BME280;21879;50.110;18.900;2023-01-16T07:26:36;97450.48;;;4.90;66.97
35758;BME280;21879;50.110;18.900;2023-01-16T07:37:05;97439.95;;;4.94;66.61
35758;BME280;21879;50.110;18.900;2023-01-16T07:47:36;97427.55;;;4.93;66.40
35758;BME280;21879;50.110;18.900;2023-01-16T07:58:04;97404.52;;;4.87;66.41
35758;BME280;21879;50.110;18.900;2023-01-16T08:08:32;97384.67;;;4.92;66.81
35758;BME280;21879;50.110;18.900;2023-01-16T08:19:00;97379.90;;;4.87;67.18
35758;BME280;21879;50.110;18.900;2023-01-16T08:29:27;97370.84;;;4.98;67.55
35758;BME280;21879;50.110;18.900;2023-01-16T08:39:55;97354.30;;;5.17;67.75
35758;BME280;21879;50.110;18.900;2023-01-16T08:50:23;97348.56;;;5.23;67.41
35758;BME280;21879;50.110;18.900;2023-01-16T09:01:08;97329.15;;;5.34;67.55
35758;BME280;21879;50.110;18.900;2023-01-16T09:11:36;97305.64;;;5.55;67.66
35758;BME280;21879;50.110;18.900;2023-01-16T09:22:22;97282.41;;;5.78;67.61
35758;BME280;21879;50.110;18.900;2023-01-16T09:32:50;97266.29;;;5.99;67.84
35758;BME280;21879;50.110;18.900;2023-01-16T09:43:35;97232.98;;;6.12;67.83
35758;BME280;21879;50.110;18.900;2023-01-16T09:54:06;97200.09;;;6.18;67.63
35758;BME280;21879;50.110;18.900;2023-01-16T10:04:56;97180.38;;;6.19;66.94
35758;BME280;21879;50.110;18.900;2023-01-16T10:15:34;97156.21;;;6.21;67.11
35758;BME280;21879;50.110;18.900;2023-01-16T10:26:10;97132.98;;;6.35;66.99
35758;BME280;21879;50.110;18.900;2023-01-16T10:36:43;97108.88;;;6.42;66.70
35758;BME280;21879;50.110;18.900;2023-01-16T10:47:14;97087.23;;;6.45;66.34
35758;BME280;21879;50.110;18.900;2023-01-16T10:58:02;97057.85;;;6.47;66.19
35758;BME280;21879;50.110;18.900;2023-01-16T11:08:30;97044.09;;;6.53;65.95
35758;BME280;21879;50.110;18.900;2023-01-16T11:18:57;97018.04;;;6.44;66.17
35758;BME280;21879;50.110;18.900;2023-01-16T11:29:28;96997.38;;;6.23;65.83
35758;BME280;21879;50.110;18.900;2023-01-16T11:40:02;96964.30;;;6.11;66.22
35758;BME280;21879;50.110;18.900;2023-01-16T11:50:34;96950.49;;;6.20;66.01
35758;BME280;21879;50.110;18.900;2023-01-16T12:01:07;96933.36;;;6.23;65.39
35758;BME280;21879;50.110;18.900;2023-01-16T12:12:05;96911.89;;;6.34;65.62
35758;BME280;21879;50.110;18.900;2023-01-16T12:33:48;96841.29;;;6.57;65.26
35758;BME280;21879;50.110;18.900;2023-01-16T12:55:24;96807.23;;;6.59;64.95
35758;BME280;21879;50.110;18.900;2023-01-16T13:06:12;96799.45;;;6.73;64.84
35758;BME280;21879;50.110;18.900;2023-01-16T13:16:44;96781.15;;;6.73;64.17
35758;BME280;21879;50.110;18.900;2023-01-16T13:27:19;96760.68;;;6.70;64.24
35758;BME280;21879;50.110;18.900;2023-01-16T13:38:04;96743.02;;;6.78;64.19
35758;BME280;21879;50.110;18.900;2023-01-16T13:48:51;96723.80;;;6.74;63.85
35758;BME280;21879;50.110;18.900;2023-01-16T13:59:33;96701.50;;;6.61;63.90
35758;BME280;21879;50.110;18.900;2023-01-16T14:10:17;96682.15;;;6.74;64.21
35758;BME280;21879;50.110;18.900;2023-01-16T14:21:03;96669.45;;;6.78;64.27
35758;BME280;21879;50.110;18.900;2023-01-16T14:31:42;96658.23;;;6.71;64.30
35758;BME280;21879;50.110;18.900;2023-01-16T14:42:18;96637.30;;;6.53;64.52
35758;BME280;21879;50.110;18.900;2023-01-16T14:53:20;96622.60;;;6.41;65.02
35758;BME280;21879;50.110;18.900;2023-01-16T15:04:07;96606.05;;;6.40;65.17
35758;BME280;21879;50.110;18.900;2023-01-16T15:14:35;96581.86;;;6.22;65.46
35758;BME280;21879;50.110;18.900;2023-01-16T15:25:10;96566.71;;;6.07;65.96
35758;BME280;21879;50.110;18.900;2023-01-16T15:35:40;96552.17;;;6.02;66.20
35758;BME280;21879;50.110;18.900;2023-01-16T15:46:13;96543.84;;;6.11;66.54
35758;BME280;21879;50.110;18.900;2023-01-16T15:57:03;96516.15;;;6.14;66.19
35758;BME280;21879;50.110;18.900;2023-01-16T16:07:44;96502.42;;;5.98;66.24
35758;BME280;21879;50.110;18.900;2023-01-16T16:18:16;96485.30;;;6.06;66.40
35758;BME280;21879;50.110;18.900;2023-01-16T16:28:45;96472.85;;;6.14;66.20
35758;BME280;21879;50.110;18.900;2023-01-16T16:39:29;96462.64;;;6.01;66.15
35758;BME280;21879;50.110;18.900;2023-01-16T16:49:57;96440.27;;;5.80;66.41
35758;BME280;21879;50.110;18.900;2023-01-16T17:00:26;96420.58;;;5.74;66.85
35758;BME280;21879;50.110;18.900;2023-01-16T17:10:55;96404.64;;;5.83;67.38
35758;BME280;21879;50.110;18.900;2023-01-16T17:21:23;96400.34;;;5.90;67.25
35758;BME280;21879;50.110;18.900;2023-01-16T17:31:51;96386.30;;;5.85;67.44
35758;BME280;21879;50.110;18.900;2023-01-16T17:42:19;96362.95;;;5.76;67.46
35758;BME280;21879;50.110;18.900;2023-01-16T17:53:04;96350.85;;;5.64;67.64
35758;BME280;21879;50.110;18.900;2023-01-16T18:03:32;96330.35;;;5.64;67.87
35758;BME280;21879;50.110;18.900;2023-01-16T18:14:03;96314.45;;;5.65;67.82
35758;BME280;21879;50.110;18.900;2023-01-16T18:24:49;96302.58;;;5.58;68.01
35758;BME280;21879;50.110;18.900;2023-01-16T18:35:17;96288.80;;;5.46;68.20
35758;BME280;21879;50.110;18.900;2023-01-16T18:45:44;96269.85;;;5.52;68.29
35758;BME280;21879;50.110;18.900;2023-01-16T18:56:32;96245.45;;;5.61;68.45
35758;BME280;21879;50.110;18.900;2023-01-16T19:07:22;96212.42;;;5.47;68.06
35758;BME280;21879;50.110;18.900;2023-01-16T19:17:51;96193.17;;;5.27;68.32
35758;BME280;21879;50.110;18.900;2023-01-16T19:28:21;96190.75;;;5.28;68.75
35758;BME280;21879;50.110;18.900;2023-01-16T19:38:50;96170.70;;;5.30;68.67
35758;BME280;21879;50.110;18.900;2023-01-16T19:49:19;96167.23;;;5.31;68.93
35758;BME280;21879;50.110;18.900;2023-01-16T19:59:46;96161.17;;;5.49;68.94
35758;BME280;21879;50.110;18.900;2023-01-16T20:10:16;96153.70;;;5.62;68.97
35758;BME280;21879;50.110;18.900;2023-01-16T20:20:44;96145.85;;;5.65;68.75
35758;BME280;21879;50.110;18.900;2023-01-16T20:31:15;96134.16;;;5.76;68.76
35758;BME280;21879;50.110;18.900;2023-01-16T20:41:44;96120.39;;;5.97;68.77
35758;BME280;21879;50.110;18.900;2023-01-16T20:52:29;96101.14;;;6.01;68.33
35758;BME280;21879;50.110;18.900;2023-01-16T21:02:56;96093.10;;;6.14;68.53
35758;BME280;21879;50.110;18.900;2023-01-16T21:13:24;96078.72;;;6.31;68.05
35758;BME280;21879;50.110;18.900;2023-01-16T21:24:09;96064.23;;;6.36;67.98
35758;BME280;21879;50.110;18.900;2023-01-16T21:34:37;96066.63;;;6.46;67.63
35758;BME280;21879;50.110;18.900;2023-01-16T21:45:08;96071.62;;;6.46;67.37
35758;BME280;21879;50.110;18.900;2023-01-16T21:55:54;96075.30;;;6.55;67.50
35758;BME280;21879;50.110;18.900;2023-01-16T22:06:22;96067.48;;;6.61;67.17
35758;BME280;21879;50.110;18.900;2023-01-16T22:16:49;96051.93;;;6.66;66.97
35758;BME280;21879;50.110;18.900;2023-01-16T22:27:35;96045.14;;;6.68;66.98
35758;BME280;21879;50.110;18.900;2023-01-16T22:38:03;96039.89;;;6.70;66.53
35758;BME280;21879;50.110;18.900;2023-01-16T22:48:30;96025.03;;;6.65;66.57
35758;BME280;21879;50.110;18.900;2023-01-16T22:58:58;96019.95;;;6.38;66.33
35758;BME280;21879;50.110;18.900;2023-01-16T23:09:26;96005.73;;;6.16;66.58
35758;BME280;21879;50.110;18.900;2023-01-16T23:19:53;95992.95;;;6.11;67.09
35758;BME280;21879;50.110;18.900;2023-01-16T23:30:23;95991.65;;;5.99;66.95
35758;BME280;21879;50.110;18.900;2023-01-16T23:40:50;95989.40;;;5.94;67.65
35758;BME280;21879;50.110;18.900;2023-01-16T23:51:18;95981.41;;;6.11;67.70
